createdAt,value
2018-06-10T00:01:47.950Z,100.00
2018-06-10T00:04:16.114Z,100.00
2018-06-10T00:06:44.286Z,100.00
2018-06-10T00:09:12.450Z,100.00
2018-06-10T00:11:40.606Z,99.91
2018-06-10T00:14:08.767Z,97.73
2018-06-10T00:16:36.942Z,98.20
2018-06-10T00:19:05.094Z,98.81
2018-06-10T00:21:33.238Z,99.23
2018-06-10T00:24:01.714Z,99.87
2018-06-10T00:26:29.886Z,100.00
2018-06-10T00:29:03.471Z,100.00
2018-06-10T00:31:31.630Z,100.00
2018-06-10T00:33:59.782Z,100.00
2018-06-10T00:36:27.967Z,100.00
2018-06-10T00:38:56.185Z,100.00
2018-06-10T00:41:24.305Z,100.00
2018-06-10T00:43:52.472Z,100.00
2018-06-10T00:46:20.626Z,100.00
2018-06-10T00:48:48.782Z,100.00
2018-06-10T00:51:16.966Z,100.00
2018-06-10T00:53:45.118Z,100.00
2018-06-10T00:56:24.566Z,100.00
2018-06-10T00:58:52.712Z,100.00
2018-06-10T01:01:20.870Z,100.00
2018-06-10T01:03:49.025Z,100.00
2018-06-10T01:06:17.238Z,100.00
2018-06-10T01:08:45.351Z,100.00
2018-06-10T01:11:13.514Z,100.00
2018-06-10T01:13:41.686Z,100.00
2018-06-10T01:16:09.856Z,100.00
2018-06-10T01:18:38.058Z,100.00
2018-06-10T01:21:06.211Z,100.00
2018-06-10T01:23:34.378Z,100.00
2018-06-10T01:26:02.526Z,100.00
2018-06-10T01:28:30.718Z,100.00
2018-06-10T01:30:59.194Z,100.00
2018-06-10T01:33:27.567Z,100.00
2018-06-10T01:35:55.741Z,100.00
2018-06-10T01:38:23.922Z,100.00
2018-06-10T01:40:52.092Z,100.00
2018-06-10T01:43:20.266Z,100.00
2018-06-10T01:45:48.777Z,100.00
2018-06-10T01:48:16.934Z,100.00
2018-06-10T01:50:45.094Z,100.00
2018-06-10T01:53:13.281Z,100.00
2018-06-10T01:55:41.456Z,100.00
2018-06-10T01:58:09.616Z,100.00
2018-06-10T02:00:37.771Z,100.00
2018-06-10T02:03:05.954Z,100.00
2018-06-10T02:05:34.098Z,100.00
2018-06-10T02:08:02.267Z,100.00
2018-06-10T02:10:30.439Z,100.00
2018-06-10T02:12:58.610Z,100.00
2018-06-10T02:15:26.794Z,100.00
2018-06-10T02:17:54.942Z,100.00
2018-06-10T02:20:23.127Z,100.00
2018-06-10T02:22:51.278Z,100.00
2018-06-10T02:25:19.444Z,100.00
2018-06-10T02:27:47.598Z,100.00
2018-06-10T02:30:15.746Z,100.00
2018-06-10T02:32:43.914Z,100.00
2018-06-10T02:35:12.132Z,100.00
2018-06-10T02:37:40.298Z,100.00
2018-06-10T02:40:08.462Z,100.00
2018-06-10T02:42:36.630Z,100.00
2018-06-10T02:45:04.887Z,100.00
2018-06-10T02:47:33.044Z,100.00
2018-06-10T02:50:01.198Z,100.00
2018-06-10T02:52:29.358Z,100.00
2018-06-10T02:54:57.514Z,100.00
2018-06-10T02:57:25.682Z,100.00
2018-06-10T02:59:53.841Z,100.00
2018-06-10T03:02:22.014Z,100.00
2018-06-10T03:04:50.186Z,100.00
2018-06-10T03:07:18.348Z,100.00
2018-06-10T03:09:46.528Z,100.00
2018-06-10T03:12:14.679Z,100.00
2018-06-10T03:14:42.830Z,100.00
2018-06-10T03:17:11.023Z,100.00
2018-06-10T03:19:39.171Z,100.00
2018-06-10T03:22:07.326Z,100.00
2018-06-10T03:24:35.490Z,100.00
2018-06-10T03:27:03.660Z,100.00
2018-06-10T03:29:31.829Z,100.00
2018-06-10T03:31:59.979Z,100.00
2018-06-10T03:34:28.146Z,100.00
2018-06-10T03:36:56.306Z,100.00
2018-06-10T03:39:24.467Z,100.00
2018-06-10T03:41:52.638Z,100.00
2018-06-10T03:44:20.802Z,100.00
2018-06-10T03:46:48.982Z,100.00
2018-06-10T03:49:17.150Z,100.00
2018-06-10T03:51:45.499Z,100.00
2018-06-10T03:54:13.659Z,100.00
2018-06-10T03:56:41.826Z,100.00
2018-06-10T03:59:09.987Z,100.00
2018-06-10T04:01:38.146Z,100.00
2018-06-10T04:04:06.370Z,100.00
2018-06-10T04:06:34.522Z,100.00
2018-06-10T04:09:03.082Z,100.00
2018-06-10T04:11:31.242Z,100.00
2018-06-10T04:13:59.400Z,100.00
2018-06-10T04:16:29.168Z,100.00
2018-06-10T04:18:58.000Z,100.00
2018-06-10T04:21:26.277Z,100.00
2018-06-10T04:23:54.418Z,100.00
2018-06-10T04:26:22.586Z,100.00
2018-06-10T04:28:50.746Z,100.00
2018-06-10T04:31:18.903Z,100.00
2018-06-10T04:33:47.077Z,100.00
2018-06-10T04:36:15.237Z,100.00
2018-06-10T04:38:43.415Z,100.00
2018-06-10T04:41:11.627Z,100.00
2018-06-10T04:43:39.867Z,100.00
2018-06-10T04:46:08.058Z,100.00
2018-06-10T04:48:36.206Z,100.00
2018-06-10T04:51:04.370Z,100.00
2018-06-10T04:53:32.523Z,100.00
2018-06-10T04:56:00.686Z,100.00
2018-06-10T04:58:28.882Z,100.00
2018-06-10T05:00:57.054Z,100.00
2018-06-10T05:03:25.214Z,100.00
2018-06-10T05:05:53.378Z,100.00
2018-06-10T05:08:21.554Z,100.00
2018-06-10T05:10:49.714Z,100.00
2018-06-10T05:13:18.178Z,100.00
2018-06-10T05:15:46.394Z,100.00
2018-06-10T05:18:14.598Z,100.00
2018-06-10T05:20:42.756Z,100.00
2018-06-10T05:23:10.906Z,100.00
2018-06-10T05:25:39.354Z,100.00
2018-06-10T05:28:07.518Z,100.00
2018-06-10T05:30:35.675Z,100.00
2018-06-10T05:33:03.850Z,100.00
2018-06-10T05:35:32.032Z,100.00
2018-06-10T05:38:00.442Z,100.00
2018-06-10T05:40:28.679Z,100.00
2018-06-10T05:42:56.900Z,100.00
2018-06-10T05:45:25.091Z,100.00
2018-06-10T05:47:53.335Z,100.00
2018-06-10T05:50:21.551Z,100.00
2018-06-10T05:52:49.774Z,100.00
2018-06-10T05:55:18.045Z,100.00
2018-06-10T05:57:46.242Z,100.00
2018-06-10T06:00:14.495Z,100.00
2018-06-10T06:02:42.672Z,100.00
2018-06-10T06:05:10.895Z,100.00
2018-06-10T06:07:39.107Z,100.00
2018-06-10T06:10:07.306Z,100.00
2018-06-10T06:12:35.525Z,100.00
2018-06-10T06:15:03.723Z,100.00
2018-06-10T06:17:31.979Z,99.78
2018-06-10T06:20:00.182Z,99.02
2018-06-10T06:22:28.428Z,97.97
2018-06-10T06:24:56.630Z,97.26
2018-06-10T06:27:24.873Z,96.52
2018-06-10T06:29:53.107Z,97.03
2018-06-10T06:32:21.376Z,96.00
2018-06-10T06:34:49.644Z,95.77
2018-06-10T06:37:17.847Z,96.12
2018-06-10T06:39:46.131Z,95.61
2018-06-10T06:42:14.378Z,94.44
2018-06-10T06:44:42.623Z,95.08
2018-06-10T06:47:10.948Z,95.07
2018-06-10T06:52:06.452Z,95.95
2018-06-10T06:54:34.637Z,95.32
2018-06-10T06:57:02.847Z,93.94
2018-06-10T06:59:31.062Z,92.47
2018-06-10T07:01:59.225Z,92.37
2018-06-10T07:04:27.430Z,93.76
2018-06-10T07:06:55.659Z,93.52
2018-06-10T07:09:23.850Z,93.02
2018-06-10T07:11:52.059Z,92.50
2018-06-10T07:14:20.334Z,92.54
2018-06-10T07:16:48.602Z,93.35
2018-06-10T07:19:16.782Z,92.42
2018-06-10T07:21:45.004Z,91.08
2018-06-10T07:24:13.238Z,89.18
2018-06-10T07:26:41.476Z,88.68
2018-06-10T07:29:09.642Z,89.13
2018-06-10T07:31:37.846Z,89.63
2018-06-10T07:34:06.040Z,86.82
2018-06-10T07:36:34.258Z,87.83
2018-06-10T07:39:02.452Z,88.83
2018-06-10T07:41:30.708Z,88.54
2018-06-10T07:43:58.872Z,88.49
2018-06-10T07:46:27.063Z,88.52
2018-06-10T07:48:55.283Z,89.34
2018-06-10T07:51:23.475Z,85.85
2018-06-10T07:53:51.666Z,86.91
2018-06-10T07:56:19.900Z,86.66
2018-06-10T07:58:48.079Z,87.82
2018-06-10T08:01:16.291Z,88.64
2018-06-10T08:03:44.486Z,88.82
2018-06-10T08:06:12.656Z,88.94
2018-06-10T08:08:40.842Z,88.56
2018-06-10T08:11:09.054Z,88.84
2018-06-10T08:13:37.229Z,88.24
2018-06-10T08:16:05.401Z,89.27
2018-06-10T08:18:33.575Z,89.57
2018-06-10T08:21:01.759Z,90.75
2018-06-10T08:23:29.935Z,91.29
2018-06-10T08:25:58.102Z,93.48
2018-06-10T08:28:26.274Z,92.55
2018-06-10T08:30:54.450Z,93.22
2018-06-10T08:33:22.629Z,92.52
2018-06-10T08:35:51.419Z,92.55
2018-06-10T08:38:19.574Z,92.30
2018-06-10T08:40:48.051Z,91.60
2018-06-10T08:43:16.247Z,89.81
2018-06-10T08:45:44.508Z,89.76
2018-06-10T08:48:13.120Z,87.92
2018-06-10T08:50:41.290Z,87.26
2018-06-10T08:53:09.442Z,86.49
2018-06-10T08:55:37.597Z,86.84
2018-06-10T08:58:05.838Z,84.89
2018-06-10T09:00:34.071Z,82.47
2018-06-10T09:03:02.215Z,83.25
2018-06-10T09:05:30.382Z,82.67
2018-06-10T09:07:58.551Z,83.20
2018-06-10T09:10:27.066Z,80.82
2018-06-10T09:12:55.307Z,80.66
2018-06-10T09:15:23.498Z,80.00
2018-06-10T09:17:51.811Z,77.46
2018-06-10T09:20:20.283Z,79.51
2018-06-10T09:22:48.450Z,78.14
2018-06-10T09:25:16.674Z,78.00
2018-06-10T09:27:45.016Z,76.53
2018-06-10T09:30:13.182Z,75.83
2018-06-10T09:32:41.358Z,78.48
2018-06-10T09:35:09.718Z,76.39
2018-06-10T09:37:37.918Z,74.89
2018-06-10T09:40:06.111Z,75.10
2018-06-10T09:42:34.305Z,76.08
2018-06-10T09:45:02.715Z,75.75
2018-06-10T09:47:30.896Z,73.89
2018-06-10T09:49:59.115Z,75.90
2018-06-10T09:52:27.314Z,73.32
2018-06-10T09:54:55.492Z,75.19
2018-06-10T09:57:23.682Z,73.85
2018-06-10T09:59:51.886Z,73.93
2018-06-10T10:02:20.119Z,73.18
2018-06-10T10:04:48.280Z,71.99
2018-06-10T10:07:16.499Z,72.46
2018-06-10T10:09:44.730Z,75.00
2018-06-10T10:12:12.956Z,75.27
2018-06-10T10:14:41.158Z,73.36
2018-06-10T10:17:09.318Z,70.38
2018-06-10T10:19:37.514Z,69.03
2018-06-10T10:22:05.726Z,67.92
2018-06-10T10:24:33.902Z,62.87
2018-06-10T10:27:02.133Z,61.56
2018-06-10T10:29:30.328Z,61.71
2018-06-10T10:31:58.563Z,63.28
2018-06-10T10:34:26.743Z,62.48
2018-06-10T10:36:54.943Z,65.26
2018-06-10T10:39:23.126Z,62.93
2018-06-10T10:41:51.351Z,62.46
2018-06-10T10:44:19.551Z,64.09
2018-06-10T10:46:47.790Z,66.16
2018-06-10T10:49:16.100Z,66.66
2018-06-10T10:51:44.309Z,66.51
2018-06-10T10:54:12.555Z,65.76
2018-06-10T10:56:40.934Z,64.78
2018-06-10T10:59:09.139Z,65.31
2018-06-10T11:01:37.320Z,66.72
2018-06-10T11:04:05.518Z,65.53
2018-06-10T11:06:33.719Z,65.13
2018-06-10T11:09:01.940Z,59.72
2018-06-10T11:11:30.142Z,61.29
2018-06-10T11:13:58.364Z,61.52
2018-06-10T11:16:26.638Z,63.97
2018-06-10T11:18:54.809Z,61.39
2018-06-10T11:21:23.026Z,61.40
2018-06-10T11:23:51.206Z,61.19
2018-06-10T11:26:19.463Z,60.29
2018-06-10T11:28:47.698Z,60.20
2018-06-10T11:31:15.901Z,61.36
2018-06-10T11:33:44.100Z,61.92
2018-06-10T11:36:12.423Z,64.44
2018-06-10T11:38:40.614Z,62.15
2018-06-10T11:41:08.802Z,62.00
2018-06-10T11:43:37.197Z,63.47
2018-06-10T11:46:05.443Z,60.60
2018-06-10T11:48:33.691Z,62.86
2018-06-10T11:51:02.006Z,60.31
2018-06-10T11:53:30.265Z,60.37
2018-06-10T11:55:58.426Z,55.97
2018-06-10T11:58:26.657Z,56.25
2018-06-10T12:00:54.816Z,56.79
2018-06-10T12:03:23.019Z,56.55
2018-06-10T12:05:51.194Z,56.13
2018-06-10T12:08:19.366Z,56.68
2018-06-10T12:10:47.546Z,55.70
2018-06-10T12:13:15.722Z,56.99
2018-06-10T12:15:43.899Z,57.95
2018-06-10T12:18:12.110Z,59.66
2018-06-10T12:20:41.204Z,59.64
2018-06-10T12:23:09.371Z,57.71
2018-06-10T12:25:37.591Z,58.32
2018-06-10T12:28:05.914Z,57.73
2018-06-10T12:30:34.098Z,59.59
2018-06-10T12:33:02.296Z,58.78
2018-06-10T12:35:30.454Z,61.22
2018-06-10T12:37:58.679Z,61.65
2018-06-10T12:40:26.826Z,59.07
2018-06-10T12:42:55.070Z,58.93
2018-06-10T12:45:23.243Z,58.85
2018-06-10T12:47:51.413Z,57.30
2018-06-10T12:50:19.587Z,57.52
2018-06-10T12:52:47.774Z,59.47
2018-06-10T12:55:15.943Z,58.11
2018-06-10T12:57:44.094Z,58.44
2018-06-10T13:00:12.270Z,60.28
2018-06-10T13:02:40.499Z,62.54
2018-06-10T13:05:08.650Z,61.70
2018-06-10T13:07:36.817Z,58.78
2018-06-10T13:10:05.007Z,58.63
2018-06-10T13:12:33.166Z,59.57
2018-06-10T13:15:01.343Z,56.49
2018-06-10T13:17:29.522Z,57.15
2018-06-10T13:19:57.714Z,57.09
2018-06-10T13:22:25.888Z,56.55
2018-06-10T13:24:54.158Z,55.95
2018-06-10T13:27:22.346Z,54.88
2018-06-10T13:29:50.561Z,58.47
2018-06-10T13:32:19.024Z,59.21
2018-06-10T13:34:47.178Z,57.53
2018-06-10T13:37:15.335Z,55.62
2018-06-10T13:39:43.544Z,57.42
2018-06-10T13:42:14.604Z,55.42
2018-06-10T13:44:43.531Z,57.45
2018-06-10T13:47:15.073Z,55.54
2018-06-10T13:49:43.731Z,54.89
2018-06-10T13:52:12.107Z,58.00
2018-06-10T13:54:41.291Z,57.01
2018-06-10T13:57:09.480Z,56.62
2018-06-10T13:59:37.754Z,55.67
2018-06-10T14:02:07.548Z,57.00
2018-06-10T14:04:36.880Z,57.66
2018-06-10T14:07:07.151Z,59.79
2018-06-10T14:09:36.649Z,60.15
2018-06-10T14:12:04.905Z,60.44
2018-06-10T14:14:33.052Z,58.33
2018-06-10T14:17:01.632Z,57.12
2018-06-10T14:19:29.785Z,59.26
2018-06-10T14:21:59.789Z,57.90
2018-06-10T14:24:27.938Z,61.01
2018-06-10T14:26:56.095Z,61.64
2018-06-10T14:29:24.318Z,62.76
2018-06-10T14:31:52.831Z,60.50
2018-06-10T14:34:20.977Z,59.59
2018-06-10T14:36:49.134Z,59.54
2018-06-10T14:39:17.438Z,58.91
2018-06-10T14:41:45.582Z,57.63
2018-06-10T14:44:14.258Z,58.47
2018-06-10T14:46:42.434Z,59.73
2018-06-10T14:49:10.621Z,60.53
2018-06-10T14:51:38.810Z,62.21
2018-06-10T14:54:07.037Z,60.68
2018-06-10T14:56:35.203Z,61.87
2018-06-10T14:59:03.366Z,61.67
2018-06-10T15:01:31.590Z,61.74
2018-06-10T15:03:59.774Z,61.54
2018-06-10T15:06:28.141Z,60.43
2018-06-10T15:08:56.527Z,62.14
2018-06-10T15:11:24.743Z,60.71
2018-06-10T15:13:52.945Z,60.29
2018-06-10T15:16:21.408Z,59.95
2018-06-10T15:18:49.873Z,61.70
2018-06-10T15:21:18.107Z,62.26
2018-06-10T15:23:46.280Z,61.03
2018-06-10T16:00:05.756Z,57.48
2018-06-10T16:02:33.987Z,58.56
2018-06-10T16:05:02.328Z,58.39
2018-06-10T16:07:30.726Z,60.24
2018-06-10T16:10:00.991Z,60.30
2018-06-10T16:12:29.180Z,59.24
2018-06-10T16:14:57.411Z,59.65
2018-06-10T16:17:25.618Z,58.91
2018-06-10T16:19:53.851Z,59.85
2018-06-10T16:22:22.018Z,60.47
2018-06-10T16:24:50.218Z,60.73
2018-06-10T16:27:18.403Z,61.90
2018-06-10T16:29:46.600Z,61.48
2018-06-10T16:32:14.791Z,61.83
2018-06-10T16:34:42.983Z,61.37
2018-06-10T16:37:11.198Z,61.91
2018-06-10T16:39:39.375Z,62.01
2018-06-10T16:42:07.715Z,61.27
2018-06-10T16:44:36.073Z,60.91
2018-06-10T16:47:04.473Z,60.41
2018-06-10T16:49:32.757Z,60.71
2018-06-10T16:52:01.018Z,60.75
2018-06-10T16:54:29.446Z,60.75
2018-06-10T16:56:57.748Z,61.30
2018-06-10T16:59:26.103Z,61.38
2018-06-10T17:01:54.339Z,63.07
2018-06-10T17:04:22.899Z,62.35
2018-06-10T17:06:51.152Z,62.12
2018-06-10T17:09:19.390Z,61.51
2018-06-10T17:11:47.653Z,60.78
2018-06-10T17:14:15.891Z,62.18
2018-06-10T17:16:44.096Z,61.41
2018-06-10T17:19:12.272Z,60.92
2018-06-10T17:21:40.508Z,62.25
2018-06-10T17:24:08.750Z,62.34
2018-06-10T17:26:36.936Z,62.34
2018-06-10T17:29:05.158Z,62.33
2018-06-10T17:31:33.812Z,63.63
2018-06-10T17:34:02.840Z,62.69
2018-06-10T17:36:31.081Z,62.90
2018-06-10T17:38:59.241Z,62.49
2018-06-10T17:41:27.454Z,62.84
2018-06-10T17:43:55.624Z,64.41
2018-06-10T17:46:23.779Z,64.61
2018-06-10T17:48:52.242Z,64.84
2018-06-10T17:51:20.404Z,64.23
2018-06-10T17:53:48.619Z,65.25
2018-06-10T17:56:16.726Z,66.07
2018-06-10T17:58:45.294Z,65.56
2018-06-10T18:01:13.451Z,65.47
2018-06-10T18:03:41.627Z,65.54
2018-06-10T18:06:09.800Z,66.18
2018-06-10T18:08:37.982Z,66.87
2018-06-10T18:11:06.861Z,66.29
2018-06-10T18:13:35.050Z,65.48
2018-06-10T18:16:03.448Z,67.07
2018-06-10T18:18:31.926Z,66.98
2018-06-10T18:21:00.366Z,67.02
2018-06-10T18:23:28.486Z,67.31
2018-06-10T18:25:56.686Z,67.84
2018-06-10T18:28:24.891Z,68.24
2018-06-10T18:30:53.075Z,68.77
2018-06-10T18:33:21.225Z,68.02
2018-06-10T18:35:49.535Z,68.24
2018-06-10T18:38:17.867Z,68.90
2018-06-10T18:40:46.030Z,69.03
2018-06-10T18:43:14.398Z,69.02
2018-06-10T18:45:42.586Z,68.92
2018-06-10T18:48:10.751Z,69.69
2018-06-10T18:50:38.914Z,70.56
2018-06-10T18:53:07.386Z,69.39
2018-06-10T18:55:35.758Z,69.16
2018-06-10T18:58:03.918Z,69.76
2018-06-10T19:00:33.164Z,70.42
2018-06-10T19:03:01.413Z,70.99
2018-06-10T19:05:29.591Z,70.56
2018-06-10T19:07:57.759Z,70.69
2018-06-10T19:10:26.003Z,69.90
2018-06-10T19:12:54.250Z,70.32
2018-06-10T19:15:22.411Z,70.79
2018-06-10T19:17:50.710Z,70.75
2018-06-10T19:20:18.965Z,71.18
2018-06-10T19:22:47.277Z,71.58
2018-06-10T19:25:15.555Z,72.66
2018-06-10T19:27:43.838Z,72.82
2018-06-10T19:30:12.251Z,72.82
2018-06-10T19:32:40.547Z,73.31
2018-06-10T19:35:09.177Z,73.80
2018-06-10T19:37:38.275Z,74.16
2018-06-10T19:40:06.503Z,74.77
2018-06-10T19:42:34.671Z,74.85
2018-06-10T19:45:02.906Z,75.06
2018-06-10T19:47:31.019Z,75.65
2018-06-10T19:49:59.179Z,76.77
2018-06-10T19:52:27.354Z,77.26
2018-06-10T19:54:55.506Z,77.20
2018-06-10T19:57:23.679Z,77.11
2018-06-10T19:59:51.840Z,77.79
2018-06-10T20:02:19.994Z,77.43
2018-06-10T20:04:48.320Z,77.69
2018-06-10T20:07:16.473Z,78.20
2018-06-10T20:09:44.642Z,77.79
2018-06-10T20:12:12.838Z,78.35
2018-06-10T20:14:41.010Z,78.87
2018-06-10T20:17:09.192Z,78.94
2018-06-10T20:19:37.362Z,79.08
2018-06-10T20:22:05.535Z,79.45
2018-06-10T20:24:33.705Z,79.67
2018-06-10T20:27:01.896Z,80.65
2018-06-10T20:29:30.064Z,80.93
2018-06-10T20:31:58.234Z,81.04
2018-06-10T20:34:26.395Z,81.53
2018-06-10T20:36:54.564Z,80.86
2018-06-10T20:39:22.734Z,81.88
2018-06-10T20:41:50.915Z,81.56
2018-06-10T20:44:19.654Z,82.57
2018-06-10T20:46:47.811Z,82.23
2018-06-10T20:49:15.994Z,82.82
2018-06-10T20:51:44.143Z,82.61
2018-06-10T20:54:12.306Z,83.43
2018-06-10T20:56:40.466Z,83.35
2018-06-10T20:59:08.647Z,84.13
2018-06-10T21:01:36.819Z,83.82
2018-06-10T21:04:04.999Z,84.36
2018-06-10T21:06:33.174Z,84.98
2018-06-10T21:09:01.351Z,84.72
2018-06-10T21:11:29.511Z,84.62
2018-06-10T21:13:57.658Z,84.55
2018-06-10T21:16:25.823Z,85.29
2018-06-10T21:18:54.011Z,85.24
2018-06-10T21:21:22.179Z,84.18
2018-06-10T21:23:50.330Z,85.21
2018-06-10T21:26:18.495Z,86.56
2018-06-10T21:28:46.662Z,86.95
2018-06-10T21:31:14.811Z,86.43
2018-06-10T21:33:43.039Z,86.58
2018-06-10T21:36:11.209Z,86.71
2018-06-10T21:38:39.374Z,87.33
2018-06-10T21:41:07.539Z,88.00
2018-06-10T21:43:35.898Z,88.44
2018-06-10T21:46:04.098Z,88.42
2018-06-10T21:48:32.270Z,88.64
2018-06-10T21:51:00.443Z,88.27
2018-06-10T21:53:28.606Z,88.78
2018-06-10T21:55:56.771Z,88.45
2018-06-10T21:58:25.049Z,88.84
2018-06-10T22:00:53.275Z,88.64
2018-06-10T22:03:21.443Z,89.28
2018-06-10T22:05:49.599Z,89.13
2018-06-10T22:08:17.769Z,89.38
2018-06-10T22:10:45.932Z,89.87
2018-06-10T22:13:14.350Z,90.20
2018-06-10T22:15:42.514Z,90.40
2018-06-10T22:18:10.673Z,90.44
2018-06-10T22:20:38.846Z,89.96
2018-06-10T22:23:07.006Z,90.48
2018-06-10T22:25:35.163Z,90.99
2018-06-10T22:28:03.322Z,90.73
2018-06-10T22:30:31.497Z,90.24
2018-06-10T22:32:59.655Z,91.18
2018-06-10T22:35:27.814Z,90.70
2018-06-10T22:37:55.983Z,91.40
2018-06-10T22:40:24.142Z,90.98
2018-06-10T22:42:52.299Z,90.83
2018-06-10T22:45:20.457Z,92.17
2018-06-10T22:47:48.624Z,91.22
2018-06-10T22:50:16.781Z,91.62
2018-06-10T22:52:44.941Z,91.39
2018-06-10T22:55:13.097Z,91.34
2018-06-10T22:57:41.271Z,91.71
2018-06-10T23:00:09.449Z,92.19
2018-06-10T23:02:37.586Z,92.62
2018-06-10T23:05:05.757Z,92.67
2018-06-10T23:07:33.916Z,92.74
2018-06-10T23:10:02.077Z,93.16
2018-06-10T23:12:30.235Z,93.05
2018-06-10T23:14:58.407Z,92.13
2018-06-10T23:17:26.590Z,92.57
2018-06-10T23:19:54.757Z,93.58
2018-06-10T23:22:22.922Z,93.24
2018-06-10T23:24:51.074Z,93.63
2018-06-10T23:27:19.290Z,93.49
2018-06-10T23:29:47.385Z,93.58
2018-06-10T23:32:15.543Z,93.21
2018-06-10T23:34:43.702Z,93.28
2018-06-10T23:37:11.882Z,92.76
2018-06-10T23:39:40.459Z,92.72
2018-06-10T23:42:08.611Z,93.07
2018-06-10T23:44:36.762Z,93.57
2018-06-10T23:47:04.919Z,93.66
2018-06-10T23:49:33.070Z,93.70
2018-06-10T23:52:01.238Z,93.56
2018-06-10T23:54:29.387Z,92.63
2018-06-10T23:56:57.543Z,92.94
2018-06-10T23:59:25.710Z,92.49
